sensor_id;sensor_type;location;lat;lon;timestamp;pressure;altitude;pressure_sealevel;temperature;humidity
60715;BME280;46564;53.096;8.246;2023-03-25T00:03:01;99813.03;;;8.34;85.45
60715;BME280;46564;53.096;8.246;2023-03-25T00:08:04;99802.59;;;8.34;85.42
60715;BME280;46564;53.096;8.246;2023-03-25T00:13:06;99806.88;;;8.30;85.36
60715;BME280;46564;53.096;8.246;2023-03-25T00:18:08;99795.59;;;8.31;85.42
60715;BME280;46564;53.096;8.246;2023-03-25T00:23:11;99797.41;;;8.37;85.51
60715;BME280;46564;53.096;8.246;2023-03-25T00:28:15;99804.50;;;8.47;85.25
60715;BME280;46564;53.096;8.246;2023-03-25T00:33:16;99792.38;;;8.55;85.01
60715;BME280;46564;53.096;8.246;2023-03-25T00:38:19;99790.72;;;8.60;84.67
60715;BME280;46564;53.096;8.246;2023-03-25T00:43:21;99786.38;;;8.64;84.42
60715;BME280;46564;53.096;8.246;2023-03-25T00:48:22;99791.63;;;8.65;84.20
60715;BME280;46564;53.096;8.246;2023-03-25T00:53:24;99784.63;;;8.64;83.97
60715;BME280;46564;53.096;8.246;2023-03-25T00:58:26;99791.59;;;8.64;83.95
60715;BME280;46564;53.096;8.246;2023-03-25T01:03:28;99788.09;;;8.60;84.03
60715;BME280;46564;53.096;8.246;2023-03-25T01:08:29;99785.50;;;8.60;84.02
60715;BME280;46564;53.096;8.246;2023-03-25T01:13:32;99776.75;;;8.58;83.85
60715;BME280;46564;53.096;8.246;2023-03-25T01:18:34;99774.16;;;8.58;83.78
60715;BME280;46564;53.096;8.246;2023-03-25T01:23:38;99780.25;;;8.57;83.78
60715;BME280;46564;53.096;8.246;2023-03-25T01:28:41;99779.34;;;8.55;83.71
60715;BME280;46564;53.096;8.246;2023-03-25T01:33:43;99780.25;;;8.57;84.03
60715;BME280;46564;53.096;8.246;2023-03-25T01:38:44;99771.50;;;8.54;83.52
60715;BME280;46564;53.096;8.246;2023-03-25T01:49:04;99754.03;;;8.48;83.36
60715;BME280;46564;53.096;8.246;2023-03-25T01:54:08;99754.91;;;8.45;83.53
60715;BME280;46564;53.096;8.246;2023-03-25T01:59:09;99752.28;;;8.44;83.49
60715;BME280;46564;53.096;8.246;2023-03-25T02:04:13;99747.06;;;8.44;83.36
60715;BME280;46564;53.096;8.246;2023-03-25T02:09:18;99748.75;;;8.42;83.46
60715;BME280;46564;53.096;8.246;2023-03-25T02:14:23;99743.53;;;8.42;83.26
60715;BME280;46564;53.096;8.246;2023-03-25T02:25:19;99736.56;;;8.38;83.32
60715;BME280;46564;53.096;8.246;2023-03-25T02:40:57;99733.00;;;8.32;83.23
60715;BME280;46564;53.096;8.246;2023-03-25T02:46:08;99733.84;;;8.28;83.47
60715;BME280;46564;53.096;8.246;2023-03-25T02:51:15;99729.44;;;8.21;83.45
60715;BME280;46564;53.096;8.246;2023-03-25T02:56:19;99720.69;;;8.16;83.68
60715;BME280;46564;53.096;8.246;2023-03-25T03:01:24;99724.13;;;8.15;83.83
60715;BME280;46564;53.096;8.246;2023-03-25T03:06:28;99717.19;;;8.14;83.82
60715;BME280;46564;53.096;8.246;2023-03-25T03:11:31;99716.31;;;8.15;83.77
60715;BME280;46564;53.096;8.246;2023-03-25T03:16:49;99718.94;;;8.15;83.91
60715;BME280;46564;53.096;8.246;2023-03-25T03:27:29;99731.72;;;7.90;84.73
60715;BME280;46564;53.096;8.246;2023-03-25T03:32:47;99724.69;;;7.83;85.29
60715;BME280;46564;53.096;8.246;2023-03-25T03:38:02;99739.44;;;7.81;85.61
60715;BME280;46564;53.096;8.246;2023-03-25T03:43:09;99741.09;;;7.76;85.99
60715;BME280;46564;53.096;8.246;2023-03-25T03:48:32;99741.03;;;7.70;86.37
60715;BME280;46564;53.096;8.246;2023-03-25T03:53:43;99726.09;;;7.55;87.12
60715;BME280;46564;53.096;8.246;2023-03-25T03:58:50;99725.91;;;7.41;87.71
60715;BME280;46564;53.096;8.246;2023-03-25T04:04:06;99731.84;;;7.31;88.38
60715;BME280;46564;53.096;8.246;2023-03-25T04:09:22;99733.50;;;7.22;89.17
60715;BME280;46564;53.096;8.246;2023-03-25T04:14:29;99739.53;;;7.20;89.72
60715;BME280;46564;53.096;8.246;2023-03-25T04:19:30;99729.97;;;7.20;90.14
60715;BME280;46564;53.096;8.246;2023-03-25T04:24:34;99736.09;;;7.22;90.41
60715;BME280;46564;53.096;8.246;2023-03-25T04:29:38;99733.50;;;7.22;90.66
60715;BME280;46564;53.096;8.246;2023-03-25T04:34:49;99738.66;;;7.19;90.71
60715;BME280;46564;53.096;8.246;2023-03-25T04:39:51;99741.28;;;7.21;90.76
60715;BME280;46564;53.096;8.246;2023-03-25T04:45:00;99736.97;;;7.24;90.66
60715;BME280;46564;53.096;8.246;2023-03-25T04:50:01;99740.44;;;7.23;90.77
60715;BME280;46564;53.096;8.246;2023-03-25T04:55:03;99729.97;;;7.20;90.94
60715;BME280;46564;53.096;8.246;2023-03-25T05:00:06;99730.91;;;7.22;90.89
60715;BME280;46564;53.096;8.246;2023-03-25T05:05:09;99730.94;;;7.27;90.78
60715;BME280;46564;53.096;8.246;2023-03-25T05:10:12;99734.53;;;7.35;90.54
60715;BME280;46564;53.096;8.246;2023-03-25T05:15:15;99737.16;;;7.37;90.35
60715;BME280;46564;53.096;8.246;2023-03-25T05:20:19;99735.44;;;7.37;90.09
60715;BME280;46564;53.096;8.246;2023-03-25T05:25:22;99724.13;;;7.37;89.87
60715;BME280;46564;53.096;8.246;2023-03-25T05:30:24;99724.09;;;7.34;89.51
60715;BME280;46564;53.096;8.246;2023-03-25T05:35:32;99732.78;;;7.34;89.46
60715;BME280;46564;53.096;8.246;2023-03-25T05:40:34;99745.78;;;7.33;89.49
60715;BME280;46564;53.096;8.246;2023-03-25T05:45:36;99746.56;;;7.27;89.52
60715;BME280;46564;53.096;8.246;2023-03-25T05:50:38;99749.13;;;7.24;89.54
60715;BME280;46564;53.096;8.246;2023-03-25T05:55:43;99742.22;;;7.28;89.66
60715;BME280;46564;53.096;8.246;2023-03-25T06:00:44;99745.81;;;7.34;89.99
60715;BME280;46564;53.096;8.246;2023-03-25T06:05:47;99745.91;;;7.42;89.63
60715;BME280;46564;53.096;8.246;2023-03-25T06:10:49;99747.63;;;7.43;89.66
60715;BME280;46564;53.096;8.246;2023-03-25T06:15:54;99735.47;;;7.40;89.58
60715;BME280;46564;53.096;8.246;2023-03-25T06:21:00;99747.63;;;7.43;89.46
60715;BME280;46564;53.096;8.246;2023-03-25T06:26:02;99748.63;;;7.50;89.46
60715;BME280;46564;53.096;8.246;2023-03-25T06:31:04;99761.72;;;7.57;89.32
60715;BME280;46564;53.096;8.246;2023-03-25T06:36:14;99737.50;;;7.65;89.11
60715;BME280;46564;53.096;8.246;2023-03-25T06:41:19;99740.38;;;7.88;88.83
60715;BME280;46564;53.096;8.246;2023-03-25T06:46:28;99754.41;;;7.97;88.56
60715;BME280;46564;53.096;8.246;2023-03-25T06:51:44;99756.19;;;8.02;88.19
60715;BME280;46564;53.096;8.246;2023-03-25T06:56:46;99767.56;;;8.10;87.78
60715;BME280;46564;53.096;8.246;2023-03-25T07:01:48;99750.19;;;8.12;87.57
60715;BME280;46564;53.096;8.246;2023-03-25T07:06:50;99760.38;;;7.90;87.54
60715;BME280;46564;53.096;8.246;2023-03-25T07:11:51;99766.97;;;7.59;88.13
60715;BME280;46564;53.096;8.246;2023-03-25T07:16:53;99765.09;;;7.49;88.64
60715;BME280;46564;53.096;8.246;2023-03-25T07:21:54;99765.84;;;7.40;89.24
60715;BME280;46564;53.096;8.246;2023-03-25T07:26:56;99778.72;;;7.31;89.96
60715;BME280;46564;53.096;8.246;2023-03-25T07:32:00;99799.53;;;7.28;90.51
60715;BME280;46564;53.096;8.246;2023-03-25T07:37:02;99807.13;;;7.14;91.10
60715;BME280;46564;53.096;8.246;2023-03-25T07:42:04;99791.03;;;6.84;91.32
60715;BME280;46564;53.096;8.246;2023-03-25T07:47:25;99784.72;;;6.67;91.42
60715;BME280;46564;53.096;8.246;2023-03-25T07:52:26;99777.66;;;6.60;91.42
60715;BME280;46564;53.096;8.246;2023-03-25T07:57:28;99778.53;;;6.62;91.88
60715;BME280;46564;53.096;8.246;2023-03-25T08:02:29;99777.84;;;6.72;92.03
60715;BME280;46564;53.096;8.246;2023-03-25T08:07:32;99785.03;;;6.88;92.30
60715;BME280;46564;53.096;8.246;2023-03-25T08:12:34;99782.00;;;7.17;92.52
60715;BME280;46564;53.096;8.246;2023-03-25T08:17:38;99782.09;;;7.23;92.35
60715;BME280;46564;53.096;8.246;2023-03-25T08:22:40;99789.53;;;8.30;92.50
60715;BME280;46564;53.096;8.246;2023-03-25T08:27:44;99786.00;;;9.25;92.08
60715;BME280;46564;53.096;8.246;2023-03-25T08:32:45;99778.19;;;9.34;90.49
60715;BME280;46564;53.096;8.246;2023-03-25T08:37:47;99764.09;;;9.09;89.04
60715;BME280;46564;53.096;8.246;2023-03-25T08:42:49;99771.94;;;9.11;88.18
60715;BME280;46564;53.096;8.246;2023-03-25T08:47:50;99770.25;;;9.13;87.63
60715;BME280;46564;53.096;8.246;2023-03-25T08:52:52;99771.78;;;8.88;86.78
60715;BME280;46564;53.096;8.246;2023-03-25T08:58:01;99774.22;;;8.69;86.72
60715;BME280;46564;53.096;8.246;2023-03-25T09:03:03;99773.25;;;8.53;86.56
60715;BME280;46564;53.096;8.246;2023-03-25T09:08:06;99773.97;;;8.43;86.66
60715;BME280;46564;53.096;8.246;2023-03-25T09:13:10;99777.41;;;8.37;86.70
60715;BME280;46564;53.096;8.246;2023-03-25T09:18:11;99774.63;;;8.19;86.89
60715;BME280;46564;53.096;8.246;2023-03-25T09:23:14;99769.25;;;8.05;87.07
60715;BME280;46564;53.096;8.246;2023-03-25T09:28:16;99759.66;;;8.01;87.50
60715;BME280;46564;53.096;8.246;2023-03-25T09:33:17;99751.78;;;7.97;87.82
60715;BME280;46564;53.096;8.246;2023-03-25T09:38:20;99765.66;;;7.96;88.10
60715;BME280;46564;53.096;8.246;2023-03-25T09:43:36;99791.31;;;7.63;88.76
60715;BME280;46564;53.096;8.246;2023-03-25T09:48:42;99824.50;;;7.13;88.68
60715;BME280;46564;53.096;8.246;2023-03-25T09:53:49;99814.41;;;6.81;89.21
60715;BME280;46564;53.096;8.246;2023-03-25T09:58:55;99796.03;;;6.70;89.94
60715;BME280;46564;53.096;8.246;2023-03-25T10:19:42;99799.19;;;7.64;91.65
60715;BME280;46564;53.096;8.246;2023-03-25T10:35:29;99794.72;;;9.33;91.31
60715;BME280;46564;53.096;8.246;2023-03-25T10:40:42;99786.31;;;9.90;90.53
60715;BME280;46564;53.096;8.246;2023-03-25T10:46:19;99786.31;;;9.90;88.85
60715;BME280;46564;53.096;8.246;2023-03-25T10:51:28;99785.34;;;9.68;88.25
60715;BME280;46564;53.096;8.246;2023-03-25T10:56:34;99798.31;;;9.48;88.17
60715;BME280;46564;53.096;8.246;2023-03-25T11:01:39;99805.19;;;9.33;88.14
60715;BME280;46564;53.096;8.246;2023-03-25T11:06:51;99803.31;;;9.17;87.84
60715;BME280;46564;53.096;8.246;2023-03-25T11:11:54;99799.75;;;8.99;87.51
60715;BME280;46564;53.096;8.246;2023-03-25T11:17:02;99807.63;;;9.09;87.55
60715;BME280;46564;53.096;8.246;2023-03-25T11:22:17;99792.31;;;9.70;87.60
60715;BME280;46564;53.096;8.246;2023-03-25T11:27:26;99798.31;;;9.49;86.99
60715;BME280;46564;53.096;8.246;2023-03-25T11:32:37;99795.59;;;9.28;87.01
60715;BME280;46564;53.096;8.246;2023-03-25T11:37:44;99816.25;;;8.97;87.32
60715;BME280;46564;53.096;8.246;2023-03-25T11:42:55;99804.03;;;8.96;88.40
60715;BME280;46564;53.096;8.246;2023-03-25T11:48:00;99796.50;;;9.34;89.08
60715;BME280;46564;53.096;8.246;2023-03-25T11:53:04;99801.75;;;9.44;88.98
60715;BME280;46564;53.096;8.246;2023-03-25T11:58:13;99783.63;;;9.70;88.93
60715;BME280;46564;53.096;8.246;2023-03-25T12:03:26;99786.31;;;9.90;88.41
60715;BME280;46564;53.096;8.246;2023-03-25T12:08:30;99786.31;;;9.90;87.86
60715;BME280;46564;53.096;8.246;2023-03-25T12:13:52;99785.34;;;9.71;87.15
60715;BME280;46564;53.096;8.246;2023-03-25T12:19:20;99765.38;;;9.84;87.09
60715;BME280;46564;53.096;8.246;2023-03-25T12:35:33;99759.47;;;10.56;85.02
60715;BME280;46564;53.096;8.246;2023-03-25T12:56:41;99760.13;;;9.81;83.35
60715;BME280;46564;53.096;8.246;2023-03-25T13:02:06;99768.00;;;9.84;83.55
60715;BME280;46564;53.096;8.246;2023-03-25T13:12:16;99741.06;;;10.28;83.44
60715;BME280;46564;53.096;8.246;2023-03-25T13:17:30;99741.06;;;10.28;83.44
60715;BME280;46564;53.096;8.246;2023-03-25T13:22:35;99742.00;;;10.89;81.91
60715;BME280;46564;53.096;8.246;2023-03-25T13:27:38;99746.38;;;10.54;80.83
60715;BME280;46564;53.096;8.246;2023-03-25T13:32:45;99772.28;;;9.72;81.13
60715;BME280;46564;53.096;8.246;2023-03-25T13:37:53;99777.50;;;9.72;82.43
60715;BME280;46564;53.096;8.246;2023-03-25T13:43:10;99768.88;;;9.98;83.84
60715;BME280;46564;53.096;8.246;2023-03-25T13:48:20;99753.16;;;9.84;84.09
60715;BME280;46564;53.096;8.246;2023-03-25T14:04:47;99722.53;;;9.46;84.72
60715;BME280;46564;53.096;8.246;2023-03-25T14:15:16;99749.25;;;9.03;83.89
60715;BME280;46564;53.096;8.246;2023-03-25T14:20:24;99743.06;;;8.86;84.37
60715;BME280;46564;53.096;8.246;2023-03-25T14:25:33;99723.97;;;8.92;84.97
60715;BME280;46564;53.096;8.246;2023-03-25T14:30:37;99724.16;;;9.26;84.99
60715;BME280;46564;53.096;8.246;2023-03-25T14:35:47;99732.94;;;9.38;85.10
60715;BME280;46564;53.096;8.246;2023-03-25T14:40:49;99733.03;;;9.60;85.32
60715;BME280;46564;53.096;8.246;2023-03-25T14:51:42;99712.22;;;9.91;84.80
60715;BME280;46564;53.096;8.246;2023-03-25T15:02:02;99678.25;;;10.00;85.10
60715;BME280;46564;53.096;8.246;2023-03-25T15:07:09;99677.34;;;9.92;84.89
60715;BME280;46564;53.096;8.246;2023-03-25T15:12:14;99682.59;;;9.95;84.78
60715;BME280;46564;53.096;8.246;2023-03-25T15:17:44;99673.00;;;9.85;84.48
60715;BME280;46564;53.096;8.246;2023-03-25T15:54:53;99768.81;;;7.05;86.33
60715;BME280;46564;53.096;8.246;2023-03-25T16:00:03;99756.56;;;6.98;87.03
60715;BME280;46564;53.096;8.246;2023-03-25T16:05:15;99740.31;;;7.14;87.71
60715;BME280;46564;53.096;8.246;2023-03-25T16:10:25;99747.38;;;7.23;88.27
60715;BME280;46564;53.096;8.246;2023-03-25T16:15:29;99750.09;;;7.32;88.36
60715;BME280;46564;53.096;8.246;2023-03-25T16:20:34;99737.16;;;7.37;88.45
60715;BME280;46564;53.096;8.246;2023-03-25T16:25:39;99752.84;;;7.43;88.61
60715;BME280;46564;53.096;8.246;2023-03-25T16:30:42;99752.13;;;7.53;88.69
60715;BME280;46564;53.096;8.246;2023-03-25T16:36:14;99737.53;;;7.68;88.83
60715;BME280;46564;53.096;8.246;2023-03-25T16:41:16;99737.50;;;7.65;88.61
60715;BME280;46564;53.096;8.246;2023-03-25T16:46:19;99735.75;;;7.64;88.59
60715;BME280;46564;53.096;8.246;2023-03-25T16:51:25;99753.06;;;7.58;88.61
60715;BME280;46564;53.096;8.246;2023-03-25T16:56:31;99759.94;;;7.53;88.75
60715;BME280;46564;53.096;8.246;2023-03-25T17:01:39;99754.78;;;7.59;88.85
60715;BME280;46564;53.096;8.246;2023-03-25T17:06:46;99756.56;;;7.60;88.96
60715;BME280;46564;53.096;8.246;2023-03-25T17:11:56;99772.25;;;7.65;89.12
60715;BME280;46564;53.096;8.246;2023-03-25T17:17:05;99784.34;;;7.60;89.09
60715;BME280;46564;53.096;8.246;2023-03-25T17:27:23;99809.34;;;7.47;89.30
60715;BME280;46564;53.096;8.246;2023-03-25T17:32:25;99818.84;;;7.42;89.94
60715;BME280;46564;53.096;8.246;2023-03-25T17:37:27;99813.59;;;7.39;90.08
60715;BME280;46564;53.096;8.246;2023-03-25T17:42:30;99832.63;;;7.35;90.14
60715;BME280;46564;53.096;8.246;2023-03-25T17:47:34;99837.81;;;7.35;90.13
60715;BME280;46564;53.096;8.246;2023-03-25T17:52:36;99836.03;;;7.31;89.73
60715;BME280;46564;53.096;8.246;2023-03-25T17:57:40;99857.78;;;7.34;89.77
60715;BME280;46564;53.096;8.246;2023-03-25T18:02:41;99863.06;;;7.39;89.49
60715;BME280;46564;53.096;8.246;2023-03-25T18:07:43;99883.06;;;7.41;89.71
60715;BME280;46564;53.096;8.246;2023-03-25T18:12:45;99891.03;;;7.51;89.37
60715;BME280;46564;53.096;8.246;2023-03-25T18:17:47;99904.03;;;7.48;89.17
60715;BME280;46564;53.096;8.246;2023-03-25T18:22:50;99914.34;;;7.43;89.41
60715;BME280;46564;53.096;8.246;2023-03-25T18:27:53;99909.03;;;7.37;89.18
60715;BME280;46564;53.096;8.246;2023-03-25T18:32:55;99923.72;;;7.32;88.93
60715;BME280;46564;53.096;8.246;2023-03-25T18:37:57;99928.78;;;7.22;88.75
60715;BME280;46564;53.096;8.246;2023-03-25T18:42:59;99950.41;;;7.18;89.17
60715;BME280;46564;53.096;8.246;2023-03-25T18:48:00;99958.19;;;7.17;89.11
60715;BME280;46564;53.096;8.246;2023-03-25T18:53:03;99959.88;;;7.13;89.44
60715;BME280;46564;53.096;8.246;2023-03-25T18:58:14;99972.88;;;7.12;89.93
60715;BME280;46564;53.096;8.246;2023-03-25T19:03:19;99978.84;;;7.07;89.84
60715;BME280;46564;53.096;8.246;2023-03-25T19:08:21;99983.16;;;7.07;90.35
60715;BME280;46564;53.096;8.246;2023-03-25T19:13:23;99993.56;;;7.07;90.51
60715;BME280;46564;53.096;8.246;2023-03-25T19:18:25;99990.19;;;7.11;90.32
60715;BME280;46564;53.096;8.246;2023-03-25T19:23:27;100011.88;;;7.10;90.58
60715;BME280;46564;53.096;8.246;2023-03-25T19:28:28;100012.78;;;7.12;90.64
60715;BME280;46564;53.096;8.246;2023-03-25T19:33:30;100005.88;;;7.14;90.39
60715;BME280;46564;53.096;8.246;2023-03-25T19:38:32;100009.28;;;7.10;90.49
60715;BME280;46564;53.096;8.246;2023-03-25T19:43:35;100011.06;;;7.14;90.38
60715;BME280;46564;53.096;8.246;2023-03-25T19:48:37;100013.66;;;7.13;90.41
60715;BME280;46564;53.096;8.246;2023-03-25T19:53:38;100020.63;;;7.14;90.29
60715;BME280;46564;53.096;8.246;2023-03-25T19:58:40;100025.81;;;7.12;90.27
60715;BME280;46564;53.096;8.246;2023-03-25T20:03:42;100022.34;;;7.13;90.54
60715;BME280;46564;53.096;8.246;2023-03-25T20:08:44;100033.56;;;7.09;91.00
60715;BME280;46564;53.096;8.246;2023-03-25T20:13:45;100033.38;;;7.00;91.38
60715;BME280;46564;53.096;8.246;2023-03-25T20:18:47;100041.22;;;7.01;91.82
60715;BME280;46564;53.096;8.246;2023-03-25T20:23:49;100053.38;;;7.02;92.16
60715;BME280;46564;53.096;8.246;2023-03-25T20:28:51;100050.72;;;7.01;92.26
60715;BME280;46564;53.096;8.246;2023-03-25T20:33:52;100044.72;;;7.03;92.33
60715;BME280;46564;53.096;8.246;2023-03-25T20:38:54;100045.53;;;7.01;92.59
60715;BME280;46564;53.096;8.246;2023-03-25T20:43:58;100056.81;;;7.00;92.66
60715;BME280;46564;53.096;8.246;2023-03-25T20:49:00;100061.97;;;6.97;92.90
60715;BME280;46564;53.096;8.246;2023-03-25T20:54:03;100058.28;;;6.87;92.93
60715;BME280;46564;53.096;8.246;2023-03-25T20:59:05;100064.19;;;6.80;93.01
60715;BME280;46564;53.096;8.246;2023-03-25T21:04:07;100071.19;;;6.82;93.06
60715;BME280;46564;53.096;8.246;2023-03-25T21:09:10;100080.75;;;6.83;93.00
60715;BME280;46564;53.096;8.246;2023-03-25T21:14:11;100081.59;;;6.82;92.79
60715;BME280;46564;53.096;8.246;2023-03-25T21:19:13;100084.19;;;6.82;92.85
60715;BME280;46564;53.096;8.246;2023-03-25T21:24:15;100088.56;;;6.83;92.62
60715;BME280;46564;53.096;8.246;2023-03-25T21:29:21;100092.97;;;6.87;92.37
60715;BME280;46564;53.096;8.246;2023-03-25T21:34:23;100100.81;;;6.89;92.47
60715;BME280;46564;53.096;8.246;2023-03-25T21:39:25;100099.03;;;6.86;92.41
60715;BME280;46564;53.096;8.246;2023-03-25T21:44:26;100109.38;;;6.83;92.50
60715;BME280;46564;53.096;8.246;2023-03-25T21:49:28;100109.31;;;6.80;92.35
60715;BME280;46564;53.096;8.246;2023-03-25T21:54:30;100113.63;;;6.80;92.36
60715;BME280;46564;53.096;8.246;2023-03-25T21:59:32;100116.19;;;6.78;92.62
60715;BME280;46564;53.096;8.246;2023-03-25T22:04:33;100122.28;;;6.77;92.67
60715;BME280;46564;53.096;8.246;2023-03-25T22:09:35;100122.22;;;6.74;93.02
60715;BME280;46564;53.096;8.246;2023-03-25T22:14:37;100125.63;;;6.71;92.81
60715;BME280;46564;53.096;8.246;2023-03-25T22:19:38;100126.38;;;6.67;93.11
60715;BME280;46564;53.096;8.246;2023-03-25T22:24:41;100131.47;;;6.63;93.04
60715;BME280;46564;53.096;8.246;2023-03-25T22:29:43;100141.97;;;6.66;92.84
60715;BME280;46564;53.096;8.246;2023-03-25T22:34:45;100142.78;;;6.65;92.70
60715;BME280;46564;53.096;8.246;2023-03-25T22:39:46;100148.03;;;6.66;92.71
60715;BME280;46564;53.096;8.246;2023-03-25T22:44:48;100161.00;;;6.65;92.70
60715;BME280;46564;53.096;8.246;2023-03-25T22:49:49;100173.97;;;6.63;92.82
60715;BME280;46564;53.096;8.246;2023-03-25T22:54:51;100173.97;;;6.63;92.80
60715;BME280;46564;53.096;8.246;2023-03-25T22:59:53;100192.22;;;6.65;92.61
60715;BME280;46564;53.096;8.246;2023-03-25T23:04:55;100196.53;;;6.63;92.59
60715;BME280;46564;53.096;8.246;2023-03-25T23:09:57;100204.31;;;6.63;92.71
60715;BME280;46564;53.096;8.246;2023-03-25T23:14:58;100213.81;;;6.61;92.28
60715;BME280;46564;53.096;8.246;2023-03-25T23:20:00;100218.16;;;6.62;92.26
60715;BME280;46564;53.096;8.246;2023-03-25T23:25:01;100222.47;;;6.60;92.41
60715;BME280;46564;53.096;8.246;2023-03-25T23:30:05;100229.38;;;6.58;92.23
60715;BME280;46564;53.096;8.246;2023-03-25T23:35:07;100230.28;;;6.60;92.33
60715;BME280;46564;53.096;8.246;2023-03-25T23:40:10;100237.13;;;6.56;92.42
60715;BME280;46564;53.096;8.246;2023-03-25T23:45:12;100245.81;;;6.57;92.36
60715;BME280;46564;53.096;8.246;2023-03-25T23:50:14;100251.03;;;6.58;92.42
60715;BME280;46564;53.096;8.246;2023-03-25T23:55:18;100257.00;;;6.54;92.48
